Terminal Aerodrome Forecast
Issued by NWS Dallas/Fort Worth, TX

Home | Current Version | Previous Version | Text Only | Print | Product List | Glossary On
Versions: 1 2 3 4 5 6 7 8 9 10 11 12 13 14 15 16 17 18 19 20 21 22 23 24 25 26 27 28 29 30
000
FTUS44 KFWD 070520
TAFDFW
TAF
KDFW 070520Z 0706/0812 14014KT P6SM BKN018
     FM071700 17015KT P6SM BKN025
     FM071900 17015KT P6SM BKN035
     FM080400 15014KT P6SM BKN022
     FM080700 17014KT P6SM BKN015=

USA.gov is the U.S. government's official web portal to all federal, state and local government web resources and services.